Time;durP1;ratioP1;P1;durP2;ratioP2;P2;SDS_P1;SDS_P2;PMS_P1;PMS_P2;Temp;Humidity;BMP_temperature;BMP_pressure;BME280_temperature;BME280_humidity;BME280_pressure;Samples;Min_cycle;Max_cycle;Signal;HPM_P1;HPM_P2
2023/08/24 00:04:18;;;;;;;11.75;6.47;;;;;;;14.76;100.00;101882.44;10423966;28;20053;-66
2023/08/24 00:09:19;;;;;;;10.63;6.47;;;;;;;14.65;100.00;101874.00;10437850;28;20037;-65
2023/08/24 00:14:19;;;;;;;10.27;5.90;;;;;;;14.52;100.00;101866.03;10441513;28;20041;-66
2023/08/24 00:19:20;;;;;;;9.98;6.28;;;;;;;14.47;100.00;101861.28;10417320;28;20037;-65
2023/08/24 00:24:20;;;;;;;8.45;5.63;;;;;;;14.48;100.00;101875.97;10440850;28;20097;-64
2023/08/24 00:29:21;;;;;;;9.45;6.63;;;;;;;14.41;100.00;101873.38;10441108;28;20124;-66
2023/08/24 00:34:22;;;;;;;11.95;6.15;;;;;;;14.41;100.00;101856.75;10437017;28;20537;-66
2023/08/24 00:39:22;;;;;;;11.85;6.03;;;;;;;14.37;100.00;101852.00;10438638;28;20063;-66
2023/08/24 00:44:23;;;;;;;14.50;7.70;;;;;;;14.41;100.00;101847.63;10441335;28;20065;-66
2023/08/24 00:49:23;;;;;;;10.70;7.38;;;;;;;14.42;100.00;101844.56;10435274;28;20103;-65
2023/08/24 00:54:24;;;;;;;10.77;6.53;;;;;;;14.44;100.00;101842.38;10417697;28;20045;-66
2023/08/24 00:59:25;;;;;;;12.18;7.90;;;;;;;14.45;100.00;101845.97;10441441;28;20124;-66
2023/08/24 01:04:25;;;;;;;11.88;6.53;;;;;;;14.45;100.00;101832.13;10437479;28;20064;-65
2023/08/24 01:09:26;;;;;;;9.85;6.63;;;;;;;14.46;100.00;101834.66;10428105;28;20045;-66
2023/08/24 01:14:35;;;;;;;12.00;6.80;;;;;;;14.46;100.00;101825.50;10436570;28;20079;-64
2023/08/24 01:19:41;;;;;;;15.38;7.55;;;;;;;14.45;100.00;101821.06;10439457;28;20071;-65
2023/08/24 01:24:46;;;;;;;13.40;7.65;;;;;;;14.54;100.00;101827.84;10424992;28;20046;-66
2023/08/24 01:29:47;;;;;;;14.30;8.38;;;;;;;14.56;100.00;101824.84;10438832;28;20052;-65
2023/08/24 01:34:47;;;;;;;18.65;9.10;;;;;;;14.61;100.00;101828.50;10420227;28;20053;-65
2023/08/24 01:40:12;;;;;;;15.30;9.70;;;;;;;14.68;100.00;101818.06;10436832;28;20060;-66
2023/08/24 01:45:13;;;;;;;12.30;8.82;;;;;;;14.58;100.00;101787.47;10408160;28;20056;-66
2023/08/24 01:50:13;;;;;;;15.98;8.80;;;;;;;14.78;100.00;101808.19;10429729;28;20049;-66
2023/08/24 01:55:15;;;;;;;13.70;8.38;;;;;;;14.76;100.00;101789.06;10440233;28;20048;-66
2023/08/24 02:00:15;;;;;;;14.00;7.72;;;;;;;14.84;100.00;101796.06;10419391;28;20551;-65
2023/08/24 02:05:16;;;;;;;10.73;7.25;;;;;;;14.84;100.00;101793.28;10451425;28;20083;-66
2023/08/24 02:10:16;;;;;;;12.48;7.53;;;;;;;14.77;100.00;101767.72;10420870;28;20044;-65
2023/08/24 02:15:17;;;;;;;11.43;8.00;;;;;;;14.79;100.00;101771.06;10427889;28;20131;-66
2023/08/24 02:20:17;;;;;;;15.38;8.73;;;;;;;14.28;100.00;101682.63;10435161;28;20045;-65
2023/08/24 02:25:18;;;;;;;14.23;8.70;;;;;;;14.86;100.00;101783.63;10436147;28;20041;-65
2023/08/24 02:30:18;;;;;;;12.98;8.00;;;;;;;14.84;100.00;101785.81;10440944;28;20037;-65
2023/08/24 02:35:19;;;;;;;18.00;8.77;;;;;;;14.85;100.00;101790.25;10441034;28;20116;-66
2023/08/24 02:40:19;;;;;;;16.52;9.48;;;;;;;14.81;100.00;101779.97;10446720;28;20049;-66
2023/08/24 02:45:20;;;;;;;15.00;8.27;;;;;;;14.80;100.00;101781.03;10439702;28;20041;-66
2023/08/24 02:50:21;;;;;;;11.98;8.65;;;;;;;14.77;100.00;101778.81;10448154;28;20037;-67
2023/08/24 02:55:21;;;;;;;13.70;7.95;;;;;;;14.75;100.00;101775.44;10441240;28;20048;-66
2023/08/24 03:00:22;;;;;;;12.60;7.97;;;;;;;14.75;100.00;101778.22;10441473;28;20063;-66
2023/08/24 03:05:23;;;;;;;13.10;7.97;;;;;;;14.81;100.00;101769.69;10442235;28;20037;-67
2023/08/24 03:10:24;;;;;;;11.38;8.30;;;;;;;14.85;100.00;101776.41;10444017;28;20037;-66
2023/08/24 03:15:25;;;;;;;16.83;8.57;;;;;;;14.91;100.00;101775.34;10436525;28;20040;-66
2023/08/24 03:20:25;;;;;;;16.45;7.90;;;;;;;14.98;100.00;101761.28;10438570;28;20112;-66
2023/08/24 03:25:26;;;;;;;13.02;8.60;;;;;;;15.03;100.00;101755.78;10421955;28;20048;-66
2023/08/24 03:30:26;;;;;;;16.08;8.00;;;;;;;15.07;100.00;101750.56;10444220;28;20053;-66
2023/08/24 03:35:27;;;;;;;15.40;8.27;;;;;;;15.06;100.00;101741.38;10435828;28;20044;-65
2023/08/24 03:40:27;;;;;;;13.45;8.63;;;;;;;14.99;100.00;101732.44;10441114;28;20745;-66
2023/08/24 03:45:28;;;;;;;13.32;8.82;;;;;;;14.88;100.00;101752.84;10439874;28;20517;-65
2023/08/24 03:50:28;;;;;;;11.50;8.00;;;;;;;14.71;100.00;101750.19;10439509;28;20076;-66
2023/08/24 03:55:28;;;;;;;13.82;9.10;;;;;;;14.73;100.00;101761.84;10437113;28;20553;-66
2023/08/24 04:00:29;;;;;;;14.98;9.52;;;;;;;14.75;100.00;101770.75;10438037;28;20048;-65
2023/08/24 04:05:31;;;;;;;15.35;11.10;;;;;;;14.78;100.00;101752.75;10444400;28;20052;-66
2023/08/24 04:10:31;;;;;;;17.25;10.57;;;;;;;14.81;100.00;101757.78;10436937;28;20052;-66
2023/08/24 04:15:32;;;;;;;18.08;10.52;;;;;;;14.88;100.00;101742.63;10441866;28;20076;-66
2023/08/24 04:20:33;;;;;;;20.00;11.02;;;;;;;14.88;100.00;101747.31;10436113;28;20045;-64
2023/08/24 04:25:33;;;;;;;17.50;10.30;;;;;;;14.88;100.00;101762.03;10432885;28;20056;-65
2023/08/24 04:30:34;;;;;;;16.10;10.05;;;;;;;14.88;100.00;101747.31;10441481;28;20041;-66
2023/08/24 04:35:35;;;;;;;17.75;10.43;;;;;;;14.91;100.00;101757.88;10440887;28;20090;-65
2023/08/24 04:40:53;;;;;;;19.30;10.32;;;;;;;14.96;100.00;101765.41;10421787;28;20041;-66
2023/08/24 04:45:54;;;;;;;14.18;8.95;;;;;;;15.01;100.00;101752.44;10440455;28;20052;-66
2023/08/24 04:50:56;;;;;;;16.23;10.00;;;;;;;15.08;100.00;101730.84;10437651;28;20037;-66
2023/08/24 04:55:56;;;;;;;17.30;9.80;;;;;;;15.11;100.00;101730.34;10435749;28;20037;-65
2023/08/24 05:00:57;;;;;;;19.95;10.65;;;;;;;15.09;100.00;101728.94;10436640;28;20033;-66
2023/08/24 05:05:57;;;;;;;20.98;10.27;;;;;;;15.09;100.00;101726.16;10438401;28;20052;-65
2023/08/24 05:10:58;;;;;;;16.63;10.65;;;;;;;15.02;100.00;101720.81;10431450;28;20049;-66
2023/08/24 05:15:58;;;;;;;15.32;10.05;;;;;;;14.95;100.00;101714.66;10435347;28;20097;-66
2023/08/24 05:20:59;;;;;;;19.52;11.35;;;;;;;14.95;100.00;101725.75;10436015;28;20068;-65
2023/08/24 05:25:59;;;;;;;17.10;10.45;;;;;;;14.97;100.00;101740.19;10434358;28;20057;-65
2023/08/24 05:31:00;;;;;;;16.52;11.00;;;;;;;15.01;100.00;101729.44;10433304;28;20050;-65
2023/08/24 05:36:01;;;;;;;22.42;10.77;;;;;;;15.11;100.00;101727.56;10440148;28;20075;-65
2023/08/24 05:41:01;;;;;;;18.90;9.45;;;;;;;15.26;100.00;101732.41;10438344;28;20105;-66
2023/08/24 05:46:02;;;;;;;17.60;8.93;;;;;;;15.42;100.00;101721.41;10421699;28;20045;-67
2023/08/24 05:51:06;;;;;;;21.85;9.57;;;;;;;15.56;100.00;101722.63;10436985;28;20042;-66
2023/08/24 05:56:06;;;;;;;14.25;8.20;;;;;;;15.63;100.00;101727.97;10437634;28;20041;-66
2023/08/24 06:01:07;;;;;;;13.80;8.10;;;;;;;15.76;100.00;101724.75;10432267;28;20050;-67
2023/08/24 06:06:09;;;;;;;12.10;8.27;;;;;;;15.77;100.00;101731.94;10436640;28;20045;-67
2023/08/24 06:11:09;;;;;;;14.57;8.32;;;;;;;15.74;100.00;101725.00;10443762;28;20037;-66
2023/08/24 06:16:10;;;;;;;14.43;7.38;;;;;;;15.77;100.00;101726.41;10442058;28;20071;-66
2023/08/24 06:21:10;;;;;;;10.93;7.50;;;;;;;16.03;100.00;101710.72;10443967;28;20481;-66
2023/08/24 06:26:11;;;;;;;16.38;7.75;;;;;;;16.41;100.00;101713.34;10443786;28;20064;-66
2023/08/24 06:31:11;;;;;;;9.77;7.20;;;;;;;16.77;100.00;101717.06;10441851;28;20033;-66
2023/08/24 06:36:12;;;;;;;11.00;6.30;;;;;;;17.12;100.00;101712.69;10441999;28;20037;-67
2023/08/24 06:41:13;;;;;;;8.25;5.90;;;;;;;17.50;100.00;101705.69;10447631;28;20037;-66
2023/08/24 06:46:14;;;;;;;13.70;6.25;;;;;;;17.81;100.00;101699.22;10448499;28;20048;-66
2023/08/24 06:51:14;;;;;;;7.57;5.78;;;;;;;18.10;100.00;101688.28;10438988;28;20041;-67
2023/08/24 06:56:15;;;;;;;11.82;6.47;;;;;;;18.29;100.00;101692.09;10443143;28;20033;-67
2023/08/24 07:01:15;;;;;;;10.13;5.82;;;;;;;18.56;100.00;101671.28;10437199;28;20033;-67
2023/08/24 07:06:16;;;;;;;12.38;6.30;;;;;;;18.80;100.00;101665.03;10422667;28;20049;-67
2023/08/24 07:11:17;;;;;;;8.07;6.38;;;;;;;19.03;100.00;101650.31;10422611;28;20575;-67
2023/08/24 07:16:17;;;;;;;8.38;6.22;;;;;;;19.15;100.00;101650.75;10428977;28;20064;-67
2023/08/24 07:21:18;;;;;;;7.95;5.43;;;;;;;19.20;100.00;101629.50;10438664;28;20052;-66
2023/08/24 07:26:18;;;;;;;6.32;4.65;;;;;;;19.39;100.00;101629.59;10432810;28;20636;-67
2023/08/24 07:31:19;;;;;;;9.93;5.15;;;;;;;19.50;100.00;101620.81;10426332;28;20041;-67
2023/08/24 07:36:19;;;;;;;10.10;5.13;;;;;;;19.66;100.00;101612.28;10414817;28;20049;-67
2023/08/24 07:41:20;;;;;;;7.13;4.65;;;;;;;19.70;100.00;101614.19;10420611;28;20057;-67
2023/08/24 07:46:20;;;;;;;9.57;4.72;;;;;;;19.88;100.00;101601.38;10420717;28;20498;-66
2023/08/24 07:51:21;;;;;;;8.88;4.88;;;;;;;20.07;100.00;101598.63;10427605;28;20042;-67
2023/08/24 07:56:22;;;;;;;8.52;5.00;;;;;;;20.15;100.00;101597.09;10430876;28;20038;-67
2023/08/24 08:01:23;;;;;;;14.35;6.63;;;;;;;20.31;100.00;101586.53;10429842;28;20034;-67
2023/08/24 08:06:24;;;;;;;10.07;6.38;;;;;;;20.52;100.00;101587.03;10441433;28;20045;-67
2023/08/24 08:11:25;;;;;;;13.52;5.93;;;;;;;20.80;100.00;101585.22;10440184;28;20067;-67
2023/08/24 08:16:25;;;;;;;7.07;3.90;;;;;;;20.99;100.00;101573.94;10435942;28;20045;-66
2023/08/24 08:21:26;;;;;;;9.60;4.97;;;;;;;21.17;100.00;101570.25;10431814;28;20060;-66
2023/08/24 08:26:27;;;;;;;11.75;5.45;;;;;;;21.39;100.00;101584.69;10437899;28;20049;-67
2023/08/24 08:31:27;;;;;;;6.88;4.43;;;;;;;21.68;100.00;101584.38;10437662;28;20047;-67
2023/08/24 08:36:28;;;;;;;11.40;4.50;;;;;;;21.81;100.00;101566.75;10418818;28;20052;-67
2023/08/24 08:41:36;;;;;;;11.30;4.93;;;;;;;21.92;100.00;101576.56;10432922;28;20095;-66
2023/08/24 08:46:36;;;;;;;9.88;4.28;;;;;;;22.17;100.00;101563.13;10437077;28;20051;-68
2023/08/24 08:51:37;;;;;;;10.52;4.97;;;;;;;22.32;100.00;101556.34;10433797;28;20045;-67
2023/08/24 08:56:38;;;;;;;15.88;6.70;;;;;;;22.67;100.00;101568.66;10438310;28;20045;-66
2023/08/24 09:01:38;;;;;;;8.07;4.45;;;;;;;22.75;100.00;101565.06;10432178;28;20056;-67
2023/08/24 09:06:39;;;;;;;8.43;4.25;;;;;;;22.67;100.00;101534.97;10432482;28;20475;-66
2023/08/24 09:11:39;;;;;;;9.05;4.50;;;;;;;23.13;100.00;101514.13;10421364;28;20048;-66
2023/08/24 09:16:41;;;;;;;12.18;5.32;;;;;;;23.45;100.00;101494.38;10428675;28;20434;-68
2023/08/24 09:21:42;;;;;;;9.23;5.03;;;;;;;23.64;100.00;101497.72;10431322;28;20124;-66
2023/08/24 09:26:42;;;;;;;8.80;4.63;;;;;;;23.74;100.00;101490.97;10429029;28;20042;-66
2023/08/24 09:31:43;;;;;;;11.00;5.40;;;;;;;23.76;100.00;101503.56;10434161;28;20076;-67
2023/08/24 09:36:44;;;;;;;8.43;5.07;;;;;;;23.79;100.00;101507.69;10429733;28;20340;-67
2023/08/24 09:41:47;;;;;;;10.80;5.18;;;;;;;23.51;100.00;101505.13;10424047;28;20052;-66
2023/08/24 09:46:47;;;;;;;10.18;5.03;;;;;;;23.55;100.00;101508.13;10427061;28;20041;-67
2023/08/24 09:51:48;;;;;;;8.00;5.15;;;;;;;23.72;100.00;101480.03;10406623;28;20037;-67
2023/08/24 09:56:48;;;;;;;7.93;4.60;;;;;;;23.73;100.00;101464.84;10436661;28;20116;-68
2023/08/24 10:01:50;;;;;;;8.15;4.68;;;;;;;23.75;100.00;101470.97;10413159;28;20041;-68
2023/08/24 10:07:14;;;;;;;7.60;4.18;;;;;;;23.74;100.00;101474.09;10435810;28;20043;-68
2023/08/24 10:12:15;;;;;;;9.18;4.40;;;;;;;23.71;100.00;101466.31;10432744;28;20033;-68
2023/08/24 10:17:15;;;;;;;7.97;4.10;;;;;;;23.61;100.00;101449.78;10400807;28;20038;-67
2023/08/24 10:22:16;;;;;;;12.73;4.28;;;;;;;23.54;100.00;101439.00;10428248;28;20037;-68
2023/08/24 10:27:16;;;;;;;8.25;4.45;;;;;;;23.55;100.00;101438.69;10429344;28;20047;-67
2023/08/24 10:32:17;;;;;;;11.60;4.60;;;;;;;23.56;100.00;101428.25;10427841;28;20059;-68
2023/08/24 10:37:18;;;;;;;5.68;3.63;;;;;;;23.59;100.00;101401.50;10430659;28;20044;-68
2023/08/24 10:42:20;;;;;;;10.95;4.75;;;;;;;23.47;100.00;101400.16;10418438;28;20125;-68
2023/08/24 10:47:25;;;;;;;7.80;4.65;;;;;;;23.37;100.00;101395.69;10431133;28;20374;-67
2023/08/24 10:52:30;;;;;;;11.65;4.78;;;;;;;23.35;100.00;101397.16;10419012;28;20041;-68
2023/08/24 10:57:38;;;;;;;9.00;4.70;;;;;;;23.27;100.00;101397.97;10434392;28;20497;-67
2023/08/24 11:02:42;;;;;;;10.85;5.30;;;;;;;23.20;100.00;101389.22;10444312;28;20063;-67
2023/08/24 11:07:53;;;;;;;6.68;4.15;;;;;;;23.30;100.00;101383.28;10436543;28;20041;-67
2023/08/24 11:13:10;;;;;;;8.82;4.78;;;;;;;23.50;100.00;101354.56;10438389;28;20043;-67
2023/08/24 11:18:29;;;;;;;6.75;4.05;;;;;;;23.87;100.00;101351.41;10438870;28;20119;-67
2023/08/24 11:23:29;;;;;;;10.88;4.80;;;;;;;24.16;100.00;101330.97;10442062;28;20099;-68
2023/08/24 11:28:30;;;;;;;6.38;5.40;;;;;;;24.46;100.00;101328.22;10433164;28;20083;-67
2023/08/24 11:33:32;;;;;;;8.07;5.05;;;;;;;24.96;100.00;101319.03;10421006;28;21088;-68
2023/08/24 11:38:39;;;;;;;6.18;4.45;;;;;;;25.46;100.00;101315.34;10414749;28;20050;-67
2023/08/24 11:43:39;;;;;;;8.50;5.47;;;;;;;26.00;100.00;101305.22;10437214;28;20454;-67
2023/08/24 11:48:40;;;;;;;8.15;4.55;;;;;;;26.18;100.00;101301.03;10435490;28;20037;-68
2023/08/24 11:53:44;;;;;;;7.70;4.70;;;;;;;26.30;100.00;101281.28;10429411;28;20057;-66
2023/08/24 11:58:48;;;;;;;7.43;4.80;;;;;;;26.19;100.00;101285.75;10438296;28;20048;-67
2023/08/24 12:03:49;;;;;;;7.35;5.43;;;;;;;26.37;100.00;101275.88;10431936;28;20052;-67
2023/08/24 12:08:50;;;;;;;11.00;5.15;;;;;;;27.09;100.00;101263.22;10435348;28;20044;-67
2023/08/24 12:13:52;;;;;;;10.02;5.07;;;;;;;27.27;100.00;101267.44;10438250;28;20033;-68
2023/08/24 12:18:57;;;;;;;9.75;4.07;;;;;;;26.71;100.00;101268.13;10440773;28;20057;-69
2023/08/24 12:24:09;;;;;;;6.70;4.10;;;;;;;26.20;100.00;101283.75;10431752;28;20047;-68
2023/08/24 12:29:09;;;;;;;10.82;4.88;;;;;;;25.82;100.00;101285.66;10436663;28;20033;-67
2023/08/24 12:34:10;;;;;;;9.50;3.90;;;;;;;25.46;100.00;101294.78;10433774;28;20037;-67
2023/08/24 12:39:12;;;;;;;5.13;3.85;;;;;;;25.13;100.00;101285.09;10436022;28;20057;-67
2023/08/24 12:44:15;;;;;;;6.53;4.03;;;;;;;25.01;100.00;101267.28;10421158;28;20080;-67
2023/08/24 12:49:15;;;;;;;5.80;3.80;;;;;;;24.94;100.00;101259.41;10426669;28;20162;-68
2023/08/24 12:54:16;;;;;;;5.40;3.90;;;;;;;24.85;100.00;101248.22;10432631;28;20056;-68
2023/08/24 12:59:17;;;;;;;6.63;4.30;;;;;;;24.76;100.00;101247.44;10430224;28;20060;-67
2023/08/24 13:04:17;;;;;;;9.23;5.50;;;;;;;24.71;100.00;101240.00;10429883;28;20045;-68
2023/08/24 13:09:18;;;;;;;9.52;5.35;;;;;;;24.69;100.00;101231.09;10437409;28;20079;-67
2023/08/24 13:14:18;;;;;;;7.75;5.80;;;;;;;24.82;100.00;101233.97;10415714;28;20041;-67
2023/08/24 13:19:19;;;;;;;7.85;5.50;;;;;;;24.85;100.00;101220.03;10423845;28;20804;-68
2023/08/24 13:24:19;;;;;;;10.77;5.90;;;;;;;24.91;100.00;101221.50;10431588;28;20045;-68
2023/08/24 13:29:20;;;;;;;10.55;5.43;;;;;;;24.87;100.00;101202.81;10434794;28;20069;-68
2023/08/24 13:34:20;;;;;;;8.60;5.40;;;;;;;24.86;100.00;101201.16;10433516;28;20041;-67
2023/08/24 13:39:21;;;;;;;6.78;4.60;;;;;;;24.84;100.00;101186.59;10420024;28;20095;-68
2023/08/24 13:44:21;;;;;;;9.18;5.45;;;;;;;24.77;100.00;101204.84;10429120;28;20041;-67
2023/08/24 13:49:21;;;;;;;6.70;4.70;;;;;;;24.63;100.00;101204.31;10427477;28;20072;-67
2023/08/24 13:54:22;;;;;;;8.02;5.07;;;;;;;24.41;100.00;101185.69;10438045;28;20100;-67
2023/08/24 13:59:22;;;;;;;6.13;4.25;;;;;;;24.32;100.00;101180.13;10427438;28;20038;-67
2023/08/24 14:04:23;;;;;;;8.93;5.15;;;;;;;24.26;100.00;101175.06;10418489;28;20049;-66
2023/08/24 14:09:23;;;;;;;10.07;5.32;;;;;;;24.34;100.00;101174.19;10404304;28;20203;-67
2023/08/24 14:14:24;;;;;;;9.23;5.57;;;;;;;24.52;100.00;101180.56;10399675;28;20053;-67
2023/08/24 14:19:25;;;;;;;7.40;3.90;;;;;;;24.54;100.00;101176.22;10395685;28;20045;-67
2023/08/24 14:24:26;;;;;;;7.13;4.53;;;;;;;24.41;100.00;101163.19;10398479;28;20041;-67
2023/08/24 14:29:26;;;;;;;7.22;4.65;;;;;;;24.16;100.00;101170.63;10407381;28;20072;-67
2023/08/24 14:34:27;;;;;;;6.10;4.40;;;;;;;23.93;100.00;101170.09;10407086;28;20046;-67
2023/08/24 14:39:27;;;;;;;6.35;4.40;;;;;;;23.64;100.00;101179.28;10406800;28;20042;-67
2023/08/24 14:44:28;;;;;;;12.32;4.43;;;;;;;23.43;100.00;101167.94;10404521;28;20410;-68
2023/08/24 14:49:28;;;;;;;9.43;4.95;;;;;;;23.28;100.00;101175.75;10422914;28;20075;-67
2023/08/24 14:54:29;;;;;;;8.55;4.95;;;;;;;23.15;100.00;101163.53;10443593;28;20037;-66
2023/08/24 14:59:29;;;;;;;10.43;5.80;;;;;;;23.12;100.00;101163.38;10416854;28;20280;-66
2023/08/24 15:04:30;;;;;;;8.75;6.15;;;;;;;22.70;100.00;101140.59;10431253;28;20041;-67
2023/08/24 15:09:30;;;;;;;10.27;6.22;;;;;;;22.69;100.00;101162.19;10441479;28;20038;-68
2023/08/24 15:14:32;;;;;;;9.48;8.02;;;;;;;22.51;100.00;101152.97;10428281;28;20482;-67
2023/08/24 15:19:32;;;;;;;10.30;8.63;;;;;;;22.40;100.00;101148.00;10439005;28;20037;-68
2023/08/24 15:24:32;;;;;;;12.00;9.43;;;;;;;22.29;100.00;101142.69;10434862;28;20045;-68
2023/08/24 15:29:33;;;;;;;14.18;10.68;;;;;;;22.29;100.00;101141.88;10437523;28;20068;-69
2023/08/24 15:34:33;;;;;;;13.93;11.15;;;;;;;22.27;100.00;101133.78;10438906;28;20128;-67
2023/08/24 15:39:38;;;;;;;16.60;11.80;;;;;;;22.30;100.00;101116.31;10439696;28;20094;-67
2023/08/24 15:44:38;;;;;;;18.27;12.45;;;;;;;22.33;100.00;101121.25;10434087;28;20049;-68
2023/08/24 15:49:39;;;;;;;16.15;12.52;;;;;;;22.27;100.00;101108.53;10441415;28;20044;-68
2023/08/24 15:54:39;;;;;;;15.43;11.45;;;;;;;22.16;100.00;101113.63;10440220;28;20038;-68
2023/08/24 15:59:40;;;;;;;15.10;11.90;;;;;;;22.02;100.00;101100.91;10442811;28;20033;-68
2023/08/24 16:04:40;;;;;;;19.92;12.27;;;;;;;21.90;100.00;101091.13;10468683;28;20045;-68
2023/08/24 16:09:41;;;;;;;16.42;12.38;;;;;;;21.81;100.00;101069.81;10442182;28;20060;-69
2023/08/24 16:14:41;;;;;;;18.40;14.20;;;;;;;21.80;100.00;101071.00;10441043;28;20064;-69
2023/08/24 16:19:45;;;;;;;16.30;12.50;;;;;;;21.76;100.00;101071.63;10443803;28;20087;-68
2023/08/24 16:24:45;;;;;;;18.05;13.80;;;;;;;21.69;100.00;101071.28;10446475;28;20041;-68
2023/08/24 16:29:46;;;;;;;16.48;13.32;;;;;;;21.67;100.00;101050.34;10437978;28;20040;-68
2023/08/24 16:34:46;;;;;;;20.25;13.77;;;;;;;21.79;100.00;101036.53;10440792;28;20041;-69
2023/08/24 16:39:47;;;;;;;17.40;13.75;;;;;;;21.85;100.00;101024.03;10441851;28;20041;-69
2023/08/24 16:44:47;;;;;;;17.95;13.00;;;;;;;21.91;100.00;101014.31;10443173;28;20539;-69
2023/08/24 16:49:47;;;;;;;13.75;11.50;;;;;;;21.88;100.00;101019.75;10438259;28;20531;-69
2023/08/24 16:54:48;;;;;;;16.13;12.70;;;;;;;21.84;100.00;101002.75;10440164;28;20037;-69
2023/08/24 16:59:49;;;;;;;16.73;12.02;;;;;;;21.77;100.00;100997.63;10438950;28;20040;-69
2023/08/24 17:04:49;;;;;;;16.40;12.43;;;;;;;21.76;100.00;100987.56;10437049;28;20440;-69
2023/08/24 17:09:50;;;;;;;14.73;11.80;;;;;;;21.75;100.00;100988.72;10426500;28;20045;-68
2023/08/24 17:14:50;;;;;;;17.08;10.88;;;;;;;21.69;100.00;100990.03;10421383;28;20263;-68
2023/08/24 17:19:51;;;;;;;14.75;10.90;;;;;;;21.55;100.00;100987.34;10427669;28;20033;-68
2023/08/24 17:24:51;;;;;;;16.35;11.90;;;;;;;21.47;100.00;100987.34;10433322;28;20036;-68
2023/08/24 17:29:53;;;;;;;16.63;11.65;;;;;;;21.37;100.00;100982.81;10431736;28;20060;-68
2023/08/24 17:34:53;;;;;;;15.82;12.18;;;;;;;21.30;100.00;100976.88;10408713;28;20052;-68
2023/08/24 17:39:54;;;;;;;15.40;13.20;;;;;;;21.23;100.00;100959.72;10428112;28;20539;-69
2023/08/24 17:44:54;;;;;;;15.93;12.02;;;;;;;21.25;100.00;100960.22;10433171;28;20041;-69
2023/08/24 17:49:55;;;;;;;16.13;13.15;;;;;;;21.27;100.00;100957.91;10437078;28;20045;-70
2023/08/24 17:54:55;;;;;;;19.33;13.35;;;;;;;21.21;100.00;100950.81;10435230;28;20052;-69
2023/08/24 17:59:56;;;;;;;16.48;12.82;;;;;;;21.21;100.00;100946.06;10439511;28;20053;-69
2023/08/24 18:04:56;;;;;;;16.13;13.43;;;;;;;21.20;100.00;100929.59;10438311;28;20101;-69
2023/08/24 18:09:57;;;;;;;16.15;12.10;;;;;;;21.15;100.00;100913.78;10468483;28;20045;-69
2023/08/24 18:14:57;;;;;;;18.38;11.82;;;;;;;21.07;100.00;100923.78;10435425;28;20122;-68
2023/08/24 18:19:58;;;;;;;16.65;13.10;;;;;;;21.02;100.00;100928.69;10439476;28;20576;-68
2023/08/24 18:24:58;;;;;;;18.15;11.95;;;;;;;20.89;100.00;100920.09;10438629;28;20048;-68
2023/08/24 18:29:59;;;;;;;15.02;12.60;;;;;;;20.91;100.00;100922.56;10436252;28;20045;-68
2023/08/24 18:34:59;;;;;;;16.17;12.00;;;;;;;20.87;100.00;100900.00;10430641;28;20033;-68
2023/08/24 18:40:00;;;;;;;17.88;13.18;;;;;;;20.78;100.00;100904.75;10438124;28;20034;-68
2023/08/24 18:45:00;;;;;;;15.68;13.13;;;;;;;20.72;100.00;100912.44;10434564;28;20631;-68
2023/08/24 18:50:01;;;;;;;17.10;13.38;;;;;;;20.62;100.00;100895.13;10438065;28;20048;-69
2023/08/24 18:55:02;;;;;;;18.85;12.93;;;;;;;20.53;100.00;100903.44;10422856;28;20044;-68
2023/08/24 19:00:03;;;;;;;16.45;13.00;;;;;;;20.43;100.00;100893.34;10435503;28;20037;-67
2023/08/24 19:05:04;;;;;;;16.70;13.93;;;;;;;20.36;100.00;100881.78;10434879;28;20120;-68
2023/08/24 19:10:05;;;;;;;18.30;13.82;;;;;;;20.24;100.00;100879.59;10432870;28;20041;-68
2023/08/24 19:15:06;;;;;;;18.52;15.20;;;;;;;20.12;100.00;100882.16;10441218;28;20055;-68
2023/08/24 19:20:07;;;;;;;19.83;15.10;;;;;;;20.05;100.00;100877.03;10428639;28;20097;-67
2023/08/24 19:25:09;;;;;;;20.70;15.43;;;;;;;20.01;100.00;100859.25;10443031;28;20051;-68
2023/08/24 19:30:10;;;;;;;19.55;16.75;;;;;;;19.96;100.00;100854.59;10436905;28;20037;-67
2023/08/24 19:35:10;;;;;;;19.08;15.98;;;;;;;19.94;100.00;100839.28;10440369;28;20609;-68
2023/08/24 19:40:11;;;;;;;21.88;16.83;;;;;;;19.45;100.00;100758.09;10441249;28;20041;-68
2023/08/24 19:45:11;;;;;;;26.45;18.13;;;;;;;19.85;100.00;100841.22;10441773;28;20069;-67
2023/08/24 19:50:12;;;;;;;25.67;19.80;;;;;;;19.84;100.00;100837.56;10434468;28;20057;-66
2023/08/24 19:55:12;;;;;;;22.50;18.30;;;;;;;19.82;100.00;100839.84;10449094;28;20052;-68
2023/08/24 20:00:13;;;;;;;24.33;18.98;;;;;;;19.81;100.00;100843.00;10442504;28;20044;-67
2023/08/24 20:05:14;;;;;;;25.02;19.95;;;;;;;19.76;100.00;100835.53;10440799;28;20047;-67
2023/08/24 20:10:16;;;;;;;26.38;20.05;;;;;;;19.72;100.00;100828.94;10439731;28;20060;-67
2023/08/24 20:15:16;;;;;;;24.52;19.83;;;;;;;19.67;100.00;100852.19;10442875;28;20045;-68
2023/08/24 20:20:17;;;;;;;26.67;20.67;;;;;;;19.67;100.00;100848.59;10441795;28;20038;-67
2023/08/24 20:25:17;;;;;;;27.88;21.83;;;;;;;19.69;100.00;100843.50;10439996;28;20048;-67
2023/08/24 20:30:20;;;;;;;25.25;20.80;;;;;;;19.71;100.00;100833.69;10434954;28;20083;-66
2023/08/24 20:35:20;;;;;;;23.98;19.40;;;;;;;19.68;100.00;100844.69;10439432;28;20060;-68
2023/08/24 20:40:21;;;;;;;25.23;20.60;;;;;;;19.69;100.00;100838.75;10437085;28;20068;-67
2023/08/24 20:45:21;;;;;;;26.00;22.48;;;;;;;19.68;100.00;100841.88;10432693;28;20034;-67
2023/08/24 20:50:21;;;;;;;26.60;21.45;;;;;;;19.64;100.00;100838.06;10435312;28;20049;-67
2023/08/24 20:55:22;;;;;;;26.13;22.05;;;;;;;19.60;100.00;100817.50;10435590;28;20033;-67
2023/08/24 21:00:22;;;;;;;29.05;22.02;;;;;;;19.33;100.00;100799.72;10435306;28;20470;-67
2023/08/24 21:05:23;;;;;;;28.83;23.13;;;;;;;19.53;100.00;100823.50;10438890;28;20033;-68
2023/08/24 21:10:23;;;;;;;30.08;23.25;;;;;;;19.55;100.00;100816.47;10425832;28;20030;-68
2023/08/24 21:15:24;;;;;;;28.15;22.70;;;;;;;19.65;100.00;100818.19;10437816;28;20041;-68
2023/08/24 21:20:25;;;;;;;25.77;21.30;;;;;;;19.72;100.00;100828.94;10435129;28;20045;-68
2023/08/24 21:25:26;;;;;;;26.45;20.98;;;;;;;19.76;100.00;100827.16;10440239;28;20041;-68
2023/08/24 21:30:26;;;;;;;25.30;20.15;;;;;;;19.77;100.00;100808.44;10438251;28;20053;-69
2023/08/24 21:35:27;;;;;;;24.77;20.48;;;;;;;19.71;100.00;100804.94;10441492;28;20041;-67
2023/08/24 21:40:27;;;;;;;24.70;19.15;;;;;;;19.63;100.00;100795.31;10437137;28;20044;-68
2023/08/24 21:45:28;;;;;;;26.15;19.27;;;;;;;19.60;100.00;100806.34;10427354;28;20044;-69
2023/08/24 21:50:28;;;;;;;26.38;19.23;;;;;;;19.55;100.00;100793.28;10435795;28;20041;-68
2023/08/24 21:55:29;;;;;;;27.88;19.98;;;;;;;19.54;100.00;100781.31;10444989;28;20055;-68
2023/08/24 22:00:29;;;;;;;25.48;20.08;;;;;;;19.51;100.00;100801.50;10437866;28;20112;-68
2023/08/24 22:05:30;;;;;;;21.08;17.15;;;;;;;19.49;100.00;100798.19;10439890;28;20048;-68
2023/08/24 22:10:31;;;;;;;25.02;18.05;;;;;;;19.50;100.00;100793.44;10418717;28;20092;-68
2023/08/24 22:15:32;;;;;;;24.63;18.50;;;;;;;19.49;100.00;100791.78;10437397;28;20044;-68
2023/08/24 22:20:32;;;;;;;19.52;14.27;;;;;;;19.42;100.00;100786.63;10420454;28;20072;-68
2023/08/24 22:25:33;;;;;;;25.42;15.82;;;;;;;19.49;100.00;100795.41;10445478;28;20251;-69
2023/08/24 22:30:33;;;;;;;24.02;14.25;;;;;;;19.50;100.00;100822.19;10434410;28;20041;-69
2023/08/24 22:35:34;;;;;;;20.67;13.82;;;;;;;19.51;100.00;100823.84;10437764;28;20040;-67